VTZ weather

Vishakhapatnam Airport
Visakhapatnam, Andhra Pradesh, India

Public forecast

Using degrees Celsius for public forecast. Weather courtesy of forecast.io.

Closest aviation weather report (METAR) to Vishakhapatnam Airport

Closest report is Rajahmundry Airport, 88.5 nm (163.9 km) WSW. Retrieved 2020/07/09 09:30 UTC (31 minutes ago):

VORY 090930Z 29012KT 8000 SCT018 SCT025 29/25 Q1002 NOSIG

Closest aviation forecast (TAF) to Vishakhapatnam Airport

Retrieved 2020/07/09 06:00 UTC (4 hours ago):

TAF VOVZ 090500Z 0906/1012 28009KT 6000 FEW016 BKN090 TEMPO 0908/0912 3500 RA/DZ SCT014 FEW025CB BKN090 BECMG 0914/0916 25004KT 5000 BR FEW016 BKN090 TEMPO 0922/0924 5000 -DZ BECMG 1000/1002 3500 BR BECMG 1004/1006 25010KT 5000 HZ SCT016 BKN090